createdAt,value
2019-06-15T00:00:55.098Z,6.23
2019-06-15T00:03:21.963Z,9.23
2019-06-15T00:05:48.727Z,5.80
2019-06-15T00:08:15.436Z,5.57
2019-06-15T00:10:42.114Z,7.30
2019-06-15T00:13:08.818Z,6.60
2019-06-15T00:15:35.595Z,7.60
2019-06-15T00:18:02.387Z,9.93
2019-06-15T00:20:29.129Z,5.03
2019-06-15T00:22:55.787Z,9.70
2019-06-15T00:25:22.630Z,7.57
2019-06-15T00:27:49.336Z,10.97
2019-06-15T00:30:16.126Z,7.80
2019-06-15T00:32:42.829Z,9.27
2019-06-15T00:35:09.844Z,6.57
2019-06-15T00:37:36.620Z,5.87
2019-06-15T00:40:04.630Z,7.93
2019-06-15T00:42:31.405Z,5.90
2019-06-15T00:44:58.110Z,4.07
2019-06-15T00:47:24.830Z,11.10
2019-06-15T00:49:51.515Z,4.93
2019-06-15T00:52:18.415Z,8.93
2019-06-15T00:54:50.297Z,7.00
2019-06-15T00:57:13.819Z,8.50
2019-06-15T00:59:40.598Z,7.53
2019-06-15T01:02:07.326Z,10.57
2019-06-15T01:04:34.110Z,10.93
2019-06-15T01:07:00.898Z,8.20
2019-06-15T01:09:27.594Z,13.60
2019-06-15T01:11:54.420Z,12.80
2019-06-15T01:14:21.195Z,10.60
2019-06-15T01:16:48.003Z,11.00
2019-06-15T01:19:14.785Z,12.70
2019-06-15T01:21:41.563Z,6.50
2019-06-15T01:24:08.323Z,8.63
2019-06-15T01:26:35.104Z,9.13
2019-06-15T01:29:01.784Z,39.73
2019-06-15T01:31:28.487Z,30.77
2019-06-15T01:33:55.278Z,12.87
2019-06-15T01:36:22.070Z,12.60
2019-06-15T01:38:48.766Z,10.20
2019-06-15T01:41:15.551Z,10.40
2019-06-15T01:43:42.249Z,8.33
2019-06-15T01:46:09.055Z,15.63
2019-06-15T01:48:35.852Z,9.97
2019-06-15T01:51:02.799Z,9.83
2019-06-15T01:53:29.585Z,7.83
2019-06-15T01:55:57.422Z,8.23
2019-06-15T01:58:24.114Z,9.20
2019-06-15T02:00:50.827Z,12.73
2019-06-15T02:03:18.610Z,9.20
2019-06-15T02:05:45.293Z,7.30
2019-06-15T02:08:12.103Z,8.77
2019-06-15T02:10:38.804Z,9.00
2019-06-15T02:13:05.603Z,8.00
2019-06-15T02:15:32.394Z,12.47
2019-06-15T02:17:59.184Z,11.37
2019-06-15T02:20:26.115Z,10.47
2019-06-15T02:22:52.797Z,21.50
2019-06-15T02:25:34.886Z,17.77
2019-06-15T02:27:52.298Z,17.40
2019-06-15T02:30:26.094Z,12.87
2019-06-15T02:32:53.157Z,13.30
2019-06-15T02:35:19.963Z,11.23
2019-06-15T02:37:46.738Z,15.87
2019-06-15T02:40:13.633Z,15.80
2019-06-15T02:42:40.329Z,18.33
2019-06-15T02:45:07.429Z,10.03
2019-06-15T02:47:34.240Z,8.07
2019-06-15T02:50:01.085Z,9.30
2019-06-15T02:52:28.134Z,8.97
2019-06-15T02:54:54.850Z,18.03
2019-06-15T02:57:21.527Z,33.23
2019-06-15T02:59:48.251Z,13.90
2019-06-15T03:02:15.057Z,18.97
2019-06-15T03:04:41.746Z,20.60
2019-06-15T03:07:08.654Z,11.43
2019-06-15T03:09:35.434Z,7.57
2019-06-15T03:12:02.320Z,8.43
2019-06-15T03:14:29.001Z,13.63
2019-06-15T03:17:29.367Z,5.97
2019-06-15T03:20:19.045Z,7.93
2019-06-15T03:22:45.725Z,10.90
2019-06-15T03:25:12.811Z,6.03
2019-06-15T03:27:39.521Z,11.03
2019-06-15T03:30:06.820Z,6.20
2019-06-15T03:32:33.626Z,10.50
2019-06-15T03:35:00.320Z,7.43
2019-06-15T03:37:27.001Z,7.30
2019-06-15T03:39:53.708Z,14.30
2019-06-15T03:42:20.396Z,17.10
2019-06-15T03:44:47.186Z,10.13
2019-06-15T03:47:13.979Z,10.03
2019-06-15T03:49:41.778Z,19.10
2019-06-15T03:52:08.489Z,13.37
2019-06-15T03:54:35.293Z,7.33
2019-06-15T03:57:01.966Z,9.93
2019-06-15T03:59:28.743Z,13.67
2019-06-15T04:01:55.483Z,20.33
2019-06-15T04:04:22.162Z,9.13
2019-06-15T04:06:48.842Z,10.70
2019-06-15T04:09:15.536Z,16.03
2019-06-15T04:11:42.199Z,12.57
2019-06-15T04:14:09.047Z,10.93
2019-06-15T04:16:35.839Z,12.83
2019-06-15T04:19:02.808Z,66.50
2019-06-15T04:21:29.575Z,39.87
2019-06-15T04:23:56.447Z,22.43
2019-06-15T04:26:35.290Z,13.50
2019-06-15T04:28:51.784Z,25.60
2019-06-15T04:31:18.471Z,13.67
2019-06-15T04:33:45.186Z,15.20
2019-06-15T04:36:11.960Z,18.23
2019-06-15T04:38:38.652Z,26.90
2019-06-15T04:41:05.502Z,16.77
2019-06-15T04:43:33.330Z,14.77
2019-06-15T04:46:00.040Z,20.00
2019-06-15T04:48:44.908Z,26.30
2019-06-15T04:51:11.609Z,18.70
2019-06-15T04:53:38.276Z,18.17
2019-06-15T04:56:05.179Z,16.57
2019-06-15T04:58:31.966Z,17.13
2019-06-15T05:00:58.747Z,16.60
2019-06-15T05:03:25.532Z,17.27
2019-06-15T05:05:52.282Z,22.17
2019-06-15T05:08:18.950Z,28.33
2019-06-15T05:10:45.835Z,39.67
2019-06-15T05:13:12.538Z,41.97
2019-06-15T05:15:39.337Z,25.97
2019-06-15T05:18:05.998Z,24.77
2019-06-15T05:20:32.730Z,25.67
2019-06-15T05:22:59.495Z,35.87
2019-06-15T05:25:26.329Z,24.83
2019-06-15T05:27:53.155Z,29.80
2019-06-15T05:30:20.961Z,23.63
2019-06-15T05:32:47.841Z,22.90
2019-06-15T05:35:14.927Z,25.93
2019-06-15T05:37:41.714Z,25.97
2019-06-15T05:40:09.654Z,24.63
2019-06-15T05:42:37.453Z,24.77
2019-06-15T05:45:05.080Z,21.00
2019-06-15T05:47:31.863Z,21.23
2019-06-15T05:49:58.568Z,25.13
2019-06-15T05:52:25.374Z,32.20
2019-06-15T05:54:52.057Z,23.30
2019-06-15T05:57:21.885Z,27.10
2019-06-15T05:59:47.416Z,20.50
2019-06-15T06:02:14.104Z,21.70
2019-06-15T06:04:40.829Z,22.00
2019-06-15T06:07:07.795Z,23.20
2019-06-15T06:09:36.446Z,23.17
2019-06-15T06:12:03.146Z,25.03
2019-06-15T06:14:29.829Z,23.13
2019-06-15T06:16:56.499Z,25.00
2019-06-15T06:19:23.192Z,30.20
2019-06-15T06:21:51.780Z,25.93
2019-06-15T06:24:19.648Z,29.27
2019-06-15T06:26:46.426Z,26.33
2019-06-15T06:29:13.415Z,36.77
2019-06-15T06:31:40.184Z,33.67
2019-06-15T06:34:07.157Z,27.53
2019-06-15T06:36:33.838Z,29.30
2019-06-15T06:39:00.544Z,31.10
2019-06-15T06:41:27.417Z,20.27
2019-06-15T06:43:54.245Z,26.43
2019-06-15T06:46:21.085Z,27.00
2019-06-15T06:48:48.037Z,25.17
2019-06-15T06:51:14.726Z,22.63
2019-06-15T06:53:41.406Z,20.97
2019-06-15T06:56:08.222Z,27.00
2019-06-15T06:58:34.922Z,32.40
2019-06-15T07:01:01.837Z,29.67
2019-06-15T07:03:28.754Z,43.87
2019-06-15T07:05:55.444Z,33.73
2019-06-15T07:08:22.247Z,35.33
2019-06-15T07:10:48.938Z,35.20
2019-06-15T07:13:15.669Z,35.07
2019-06-15T07:15:42.758Z,28.13
2019-06-15T07:18:09.455Z,25.43
2019-06-15T07:20:36.238Z,33.00
2019-06-15T07:25:43.323Z,25.90
2019-06-15T07:28:10.481Z,18.50
2019-06-15T07:30:38.744Z,25.20
2019-06-15T07:33:05.560Z,30.93
2019-06-15T07:35:32.234Z,24.80
2019-06-15T07:37:59.087Z,24.17
2019-06-15T07:40:25.841Z,22.80
2019-06-15T07:42:52.688Z,20.87
2019-06-15T07:45:19.991Z,21.87
2019-06-15T07:47:46.735Z,19.93
2019-06-15T07:50:13.615Z,18.43
2019-06-15T07:52:40.304Z,24.13
2019-06-15T07:55:07.840Z,26.70
2019-06-15T07:57:36.127Z,27.57
2019-06-15T08:00:04.012Z,28.10
2019-06-15T08:02:31.085Z,25.00
2019-06-15T08:04:57.779Z,20.50
2019-06-15T08:07:24.474Z,24.50
2019-06-15T08:09:51.257Z,24.90
2019-06-15T08:12:18.243Z,21.23
2019-06-15T08:14:44.944Z,23.87
2019-06-15T08:17:11.686Z,20.63
2019-06-15T08:19:38.465Z,23.07
2019-06-15T08:22:05.241Z,25.77
2019-06-15T08:24:31.946Z,20.10
2019-06-15T08:26:58.640Z,21.33
2019-06-15T08:29:25.337Z,25.30
2019-06-15T08:31:52.147Z,25.27
2019-06-15T08:34:18.940Z,21.40
2019-06-15T08:36:45.681Z,21.67
2019-06-15T08:39:12.361Z,19.33
2019-06-15T08:41:39.159Z,24.70
2019-06-15T08:44:06.472Z,18.93
2019-06-15T08:46:33.172Z,23.80
2019-06-15T08:49:00.418Z,26.87
2019-06-15T08:51:28.471Z,23.77
2019-06-15T08:53:56.706Z,22.53
2019-06-15T08:56:24.629Z,16.60
2019-06-15T08:58:55.725Z,18.60
2019-06-15T09:01:22.151Z,20.63
2019-06-15T09:03:50.150Z,16.20
2019-06-15T09:06:17.857Z,17.63
2019-06-15T09:08:45.390Z,23.97
2019-06-15T09:11:13.953Z,16.27
2019-06-15T09:13:41.841Z,16.20
2019-06-15T09:16:09.806Z,12.70
2019-06-15T09:18:36.774Z,26.07
2019-06-15T09:21:04.332Z,13.23
2019-06-15T09:23:31.866Z,14.10
2019-06-15T09:25:58.834Z,14.10
2019-06-15T09:28:25.529Z,17.77
2019-06-15T09:30:52.212Z,14.83
2019-06-15T09:33:19.019Z,24.03
2019-06-15T09:35:45.830Z,20.73
2019-06-15T09:38:12.638Z,78.33
2019-06-15T09:40:39.482Z,23.13
2019-06-15T09:43:06.271Z,48.03
2019-06-15T09:45:33.565Z,47.40
2019-06-15T09:48:00.253Z,16.73
2019-06-15T09:50:27.933Z,19.53
2019-06-15T09:52:54.765Z,18.67
2019-06-15T09:55:22.123Z,15.70
2019-06-15T09:57:48.806Z,23.60
2019-06-15T10:00:15.964Z,15.57
2019-06-15T10:02:42.736Z,20.20
2019-06-15T10:05:09.818Z,20.93
2019-06-15T10:07:36.695Z,16.07
2019-06-15T10:10:03.999Z,15.27
2019-06-15T10:12:30.804Z,10.80
2019-06-15T10:14:57.477Z,13.37
2019-06-15T10:17:24.279Z,14.73
2019-06-15T10:19:51.763Z,14.90
2019-06-15T10:22:18.674Z,19.63
2019-06-15T10:24:45.423Z,17.43
2019-06-15T10:27:12.245Z,36.33
2019-06-15T10:29:42.296Z,19.40
2019-06-15T10:32:07.923Z,47.57
2019-06-15T10:34:34.708Z,33.07
2019-06-15T10:37:01.716Z,31.87
2019-06-15T10:39:28.499Z,32.50
2019-06-15T10:41:55.206Z,23.63
2019-06-15T10:44:21.904Z,24.70
2019-06-15T10:46:48.695Z,16.90
2019-06-15T10:49:15.506Z,15.23
2019-06-15T10:51:42.203Z,16.23
2019-06-15T10:54:08.983Z,12.87
2019-06-15T10:56:35.784Z,10.60
2019-06-15T10:59:02.512Z,9.70
2019-06-15T11:01:29.308Z,15.67
2019-06-15T11:03:56.195Z,14.60
2019-06-15T11:06:23.015Z,24.50
2019-06-15T11:08:49.701Z,12.63
2019-06-15T11:11:21.637Z,17.20
2019-06-15T11:13:48.254Z,21.10
2019-06-15T11:16:15.154Z,21.37
2019-06-15T11:18:42.986Z,59.50
2019-06-15T11:21:10.196Z,47.77
2019-06-15T11:23:37.160Z,32.20
2019-06-15T11:26:04.056Z,15.13
2019-06-15T11:28:30.968Z,16.60
2019-06-15T11:30:57.909Z,16.60
2019-06-15T11:33:24.626Z,15.53
2019-06-15T11:35:51.325Z,12.93
2019-06-15T11:38:18.490Z,19.10
2019-06-15T11:40:45.708Z,14.70
2019-06-15T11:43:12.485Z,19.90
2019-06-15T11:45:39.296Z,13.80
2019-06-15T11:48:06.119Z,14.43
2019-06-15T11:50:32.924Z,17.10
2019-06-15T11:53:00.329Z,15.27
2019-06-15T11:55:38.982Z,17.70
2019-06-15T11:57:55.751Z,22.20
2019-06-15T12:00:31.243Z,17.03
2019-06-15T12:02:55.027Z,15.13
2019-06-15T12:05:21.816Z,21.73
2019-06-15T12:07:48.492Z,25.77
2019-06-15T12:10:15.268Z,15.07
2019-06-15T12:12:41.944Z,68.57
2019-06-15T12:15:08.699Z,54.43
2019-06-15T12:17:35.418Z,32.10
2019-06-15T12:20:02.238Z,30.77
2019-06-15T12:22:29.141Z,37.87
2019-06-15T12:24:55.854Z,17.50
2019-06-15T12:27:22.569Z,31.33
2019-06-15T12:29:49.439Z,27.23
2019-06-15T12:32:17.464Z,22.60
2019-06-15T12:34:44.285Z,22.23
2019-06-15T12:37:12.075Z,18.67
2019-06-15T12:39:41.848Z,16.70
2019-06-15T12:42:08.373Z,17.43
2019-06-15T12:44:35.075Z,15.67
2019-06-15T12:47:02.254Z,18.40
2019-06-15T12:49:28.916Z,14.60
2019-06-15T12:51:55.682Z,19.90
2019-06-15T12:54:22.585Z,24.90
2019-06-15T12:56:49.420Z,23.80
2019-06-15T12:59:16.119Z,21.67
2019-06-15T13:01:42.886Z,24.77
2019-06-15T13:04:10.675Z,24.07
2019-06-15T13:06:37.347Z,19.20
2019-06-15T13:09:05.615Z,26.07
2019-06-15T13:11:32.311Z,78.90
2019-06-15T13:13:59.088Z,19.73
2019-06-15T13:16:38.527Z,69.07
2019-06-15T13:18:54.546Z,96.37
2019-06-15T13:21:21.334Z,25.97
2019-06-15T13:23:48.107Z,24.93
2019-06-15T13:26:14.814Z,22.73
2019-06-15T13:28:41.619Z,25.90
2019-06-15T13:31:17.706Z,23.77
2019-06-15T13:33:37.128Z,22.93
2019-06-15T13:36:03.884Z,23.37
2019-06-15T13:38:30.569Z,27.50
2019-06-15T13:40:57.476Z,29.53
2019-06-15T13:43:25.246Z,23.27
2019-06-15T13:46:06.202Z,24.80
2019-06-15T13:48:33.023Z,29.10
2019-06-15T13:50:59.710Z,25.10
2019-06-15T13:53:26.415Z,25.07
2019-06-15T13:55:53.246Z,25.13
2019-06-15T13:58:19.945Z,40.73
2019-06-15T14:00:46.792Z,28.90
2019-06-15T14:03:13.498Z,34.43
2019-06-15T14:05:40.441Z,20.63
2019-06-15T14:08:07.133Z,31.60
2019-06-15T14:10:50.763Z,39.00
2019-06-15T14:13:18.045Z,34.40
2019-06-15T14:15:44.695Z,37.23
2019-06-15T14:18:11.382Z,32.87
2019-06-15T14:20:38.808Z,34.37
2019-06-15T14:23:05.522Z,37.33
2019-06-15T14:25:32.235Z,46.70
2019-06-15T14:27:58.959Z,41.90
2019-06-15T14:30:25.722Z,35.43
2019-06-15T14:32:52.493Z,32.23
2019-06-15T14:35:19.195Z,31.67
2019-06-15T14:37:45.899Z,32.23
2019-06-15T14:40:15.571Z,18.90
2019-06-15T14:42:42.252Z,18.63
2019-06-15T14:45:10.164Z,15.77
2019-06-15T14:47:36.959Z,13.50
2019-06-15T14:50:04.318Z,13.30
2019-06-15T14:52:31.649Z,13.67
2019-06-15T14:54:58.333Z,21.57
2019-06-15T14:57:26.982Z,14.93
2019-06-15T15:00:01.404Z,33.70
2019-06-15T15:02:22.194Z,13.80
2019-06-15T15:04:48.854Z,17.30
2019-06-15T15:07:16.927Z,17.70
2019-06-15T15:09:46.024Z,13.57
2019-06-15T15:12:16.167Z,12.67
2019-06-15T15:14:43.105Z,12.57
2019-06-15T15:17:09.908Z,11.67
2019-06-15T15:19:36.587Z,11.20
2019-06-15T15:22:03.486Z,11.30
2019-06-15T15:24:30.214Z,5.60
2019-06-15T15:26:57.088Z,5.90
2019-06-15T15:29:23.963Z,4.93
2019-06-15T15:31:51.386Z,5.83
2019-06-15T15:34:18.076Z,6.73
2019-06-15T15:36:46.194Z,8.03
2019-06-15T15:39:13.180Z,9.80
2019-06-15T15:41:39.961Z,6.07
2019-06-15T15:44:06.646Z,5.63
2019-06-15T15:46:33.440Z,3.50
2019-06-15T15:49:00.298Z,4.63
2019-06-15T15:51:27.070Z,6.03
2019-06-15T15:53:53.754Z,4.33
2019-06-15T15:56:20.537Z,3.30
2019-06-15T15:58:47.453Z,3.57
2019-06-15T16:01:16.904Z,3.60
2019-06-15T16:03:42.933Z,5.07
2019-06-15T16:06:09.746Z,4.47
2019-06-15T16:08:36.432Z,3.30
2019-06-15T16:11:03.377Z,4.07
2019-06-15T16:13:30.244Z,7.10
2019-06-15T16:15:57.013Z,5.67
2019-06-15T16:18:23.824Z,3.13
2019-06-15T16:20:50.623Z,5.20
2019-06-15T16:23:17.285Z,6.37
2019-06-15T16:25:46.193Z,3.53
2019-06-15T16:28:12.638Z,3.80
2019-06-15T16:31:00.286Z,4.23
2019-06-15T16:33:08.213Z,4.13
2019-06-15T16:35:36.137Z,13.03
2019-06-15T16:38:02.989Z,5.63
2019-06-15T16:40:34.499Z,8.67
2019-06-15T16:43:02.184Z,4.17
2019-06-15T16:45:28.890Z,9.17
2019-06-15T16:47:55.570Z,4.20
2019-06-15T16:50:22.484Z,4.43
2019-06-15T16:52:49.282Z,6.47
2019-06-15T16:55:16.849Z,5.53
2019-06-15T16:57:46.485Z,3.70
2019-06-15T17:00:17.983Z,5.70
2019-06-15T17:02:46.896Z,5.40
2019-06-15T17:05:13.559Z,7.10
2019-06-15T17:07:40.340Z,83.60
2019-06-15T17:10:07.148Z,6.37
2019-06-15T17:12:33.820Z,4.67
2019-06-15T17:15:00.527Z,5.00
2019-06-15T17:17:27.222Z,8.27
2019-06-15T17:19:53.898Z,9.30
2019-06-15T17:22:21.595Z,7.17
2019-06-15T17:24:48.519Z,7.07
2019-06-15T17:27:17.098Z,8.40
2019-06-15T17:29:43.854Z,8.67
2019-06-15T17:32:10.658Z,9.03
2019-06-15T17:34:37.437Z,14.83
2019-06-15T17:37:06.687Z,10.93
2019-06-15T17:39:32.821Z,8.73
2019-06-15T17:41:59.511Z,16.13
2019-06-15T17:44:26.202Z,15.17
2019-06-15T17:46:52.962Z,7.77
2019-06-15T17:49:19.759Z,8.80
2019-06-15T17:51:46.615Z,7.73
2019-06-15T17:54:13.287Z,15.20
2019-06-15T17:56:40.078Z,7.40
2019-06-15T17:59:06.867Z,32.23
2019-06-15T18:01:36.286Z,7.37
2019-06-15T18:04:03.371Z,6.90
2019-06-15T18:06:30.063Z,8.87
2019-06-15T18:08:56.758Z,6.37
2019-06-15T18:11:26.010Z,3.87
2019-06-15T18:13:52.137Z,3.63
2019-06-15T18:16:18.802Z,5.63
2019-06-15T18:18:45.561Z,6.77
2019-06-15T18:21:12.374Z,7.03
2019-06-15T18:23:39.060Z,8.63
2019-06-15T18:26:07.159Z,9.60
2019-06-15T18:28:36.237Z,8.07
2019-06-15T18:31:02.734Z,8.60
2019-06-15T18:33:29.586Z,4.40
2019-06-15T18:35:56.331Z,10.90
2019-06-15T18:38:23.077Z,4.60
2019-06-15T18:40:49.781Z,5.77
2019-06-15T18:43:17.027Z,6.40
2019-06-15T18:45:43.998Z,6.10
2019-06-15T18:48:10.809Z,4.87
2019-06-15T18:50:38.599Z,18.27
2019-06-15T18:53:07.151Z,62.30
2019-06-15T18:55:36.333Z,4.17
2019-06-15T18:58:03.371Z,6.20
2019-06-15T19:00:30.250Z,11.17
2019-06-15T19:02:57.143Z,9.80
2019-06-15T19:05:26.076Z,3.93
2019-06-15T19:07:52.900Z,2.83
2019-06-15T19:10:34.111Z,3.07
2019-06-15T19:13:01.236Z,2.73
2019-06-15T19:15:28.137Z,4.00
2019-06-15T19:17:55.984Z,2.13
2019-06-15T19:20:23.010Z,2.97
2019-06-15T19:22:49.820Z,3.47
2019-06-15T19:25:17.729Z,3.83
2019-06-15T19:27:44.373Z,11.70
2019-06-15T19:30:11.377Z,17.83
2019-06-15T19:32:38.047Z,4.47
2019-06-15T19:35:04.930Z,4.57
2019-06-15T19:37:33.911Z,2.23
2019-06-15T19:40:00.419Z,2.73
2019-06-15T19:42:27.092Z,8.27
2019-06-15T19:44:56.105Z,2.27
2019-06-15T19:47:22.457Z,5.63
2019-06-15T19:49:49.126Z,3.67
2019-06-15T19:52:16.914Z,2.90
2019-06-15T19:54:43.862Z,4.90
2019-06-15T19:57:10.657Z,5.30
2019-06-15T19:59:37.446Z,5.00
2019-06-15T20:02:06.646Z,5.80
2019-06-15T20:04:32.820Z,4.20
2019-06-15T20:06:59.605Z,3.67
2019-06-15T20:09:26.314Z,4.10
2019-06-15T20:11:53.026Z,7.13
2019-06-15T20:14:19.800Z,2.00
2019-06-15T20:16:47.043Z,3.50
2019-06-15T20:19:13.918Z,2.03
2019-06-15T20:21:40.594Z,3.40
2019-06-15T20:24:07.391Z,6.60
2019-06-15T20:26:36.521Z,2.90
2019-06-15T20:29:02.893Z,3.77
2019-06-15T20:31:29.575Z,1.83
2019-06-15T20:33:57.035Z,2.70
2019-06-15T20:36:23.719Z,3.10
2019-06-15T20:38:50.533Z,1.90
2019-06-15T20:41:17.213Z,7.93
2019-06-15T20:43:46.029Z,5.07
2019-06-15T20:46:12.606Z,1.63
2019-06-15T20:48:39.449Z,3.60
2019-06-15T20:51:10.078Z,3.40
2019-06-15T20:53:36.755Z,3.03
2019-06-15T20:56:03.565Z,1.97
2019-06-15T20:58:30.253Z,5.20
2019-06-15T21:00:56.919Z,3.83
2019-06-15T21:03:23.745Z,3.03
2019-06-15T21:05:50.400Z,7.97
2019-06-15T21:08:17.155Z,2.80
2019-06-15T21:10:46.146Z,2.57
2019-06-15T21:13:12.500Z,6.13
2019-06-15T21:15:43.006Z,10.83
2019-06-15T21:18:09.852Z,3.30
2019-06-15T21:20:36.587Z,4.13
2019-06-15T21:23:03.408Z,4.67
2019-06-15T21:25:30.112Z,3.50
2019-06-15T21:27:56.949Z,7.10
2019-06-15T21:30:23.780Z,2.50
2019-06-15T21:32:50.567Z,4.10
2019-06-15T21:35:17.257Z,5.73
2019-06-15T21:37:46.305Z,6.43
2019-06-15T21:40:15.960Z,6.67
2019-06-15T21:42:42.420Z,5.67
2019-06-15T21:45:09.205Z,5.80
2019-06-15T21:47:37.093Z,6.60
2019-06-15T21:50:04.939Z,3.40
2019-06-15T21:52:31.622Z,8.97
2019-06-15T21:54:59.417Z,4.97
2019-06-15T21:57:26.905Z,4.47
2019-06-15T21:59:53.759Z,5.63
2019-06-15T22:02:20.553Z,5.73
2019-06-15T22:04:47.330Z,3.93
2019-06-15T22:07:16.764Z,4.90
2019-06-15T22:09:42.606Z,3.23
2019-06-15T22:12:09.386Z,4.40
2019-06-15T22:14:36.176Z,3.27
2019-06-15T22:17:02.973Z,9.33
2019-06-15T22:19:29.638Z,3.83
2019-06-15T22:21:56.557Z,5.87
2019-06-15T22:24:23.217Z,5.07
2019-06-15T22:26:49.984Z,4.77
2019-06-15T22:29:16.975Z,5.03
2019-06-15T22:31:43.675Z,8.20
2019-06-15T22:34:10.447Z,3.10
2019-06-15T22:36:37.245Z,4.30
2019-06-15T22:39:06.411Z,9.93
2019-06-15T22:41:36.041Z,8.70
2019-06-15T22:44:03.244Z,4.30
2019-06-15T22:46:29.944Z,5.90
2019-06-15T22:48:56.706Z,4.60
2019-06-15T22:51:23.377Z,8.73
2019-06-15T22:53:50.204Z,6.73
2019-06-15T22:56:17.364Z,5.37
2019-06-15T22:58:46.155Z,4.40
2019-06-15T23:01:12.782Z,9.90
2019-06-15T23:03:39.557Z,5.60
2019-06-15T23:06:07.008Z,7.67
2019-06-15T23:08:36.167Z,6.77
2019-06-15T23:11:02.541Z,9.90
2019-06-15T23:13:29.210Z,8.83
2019-06-15T23:15:56.513Z,8.33
2019-06-15T23:18:23.289Z,5.47
2019-06-15T23:20:50.641Z,8.13
2019-06-15T23:23:17.313Z,8.60
2019-06-15T23:25:44.175Z,3.70
2019-06-15T23:28:10.948Z,2.90
2019-06-15T23:30:37.845Z,4.17
2019-06-15T23:33:06.539Z,6.53
2019-06-15T23:35:39.133Z,3.03
2019-06-15T23:38:06.557Z,4.20
2019-06-15T23:40:35.906Z,9.73
2019-06-15T23:43:02.092Z,2.80
2019-06-15T23:45:28.769Z,3.47
2019-06-15T23:47:57.549Z,4.10
2019-06-15T23:50:26.431Z,3.10
2019-06-15T23:52:53.112Z,3.27
2019-06-15T23:55:20.005Z,2.93
2019-06-15T23:57:47.832Z,4.40
